Time;durP1;ratioP1;P1;durP2;ratioP2;P2;SDS_P1;SDS_P2;PMS_P1;PMS_P2;Temp;Humidity;BMP_temperature;BMP_pressure;BME280_temperature;BME280_humidity;BME280_pressure;Samples;Min_cycle;Max_cycle;Signal;HPM_P1;HPM_P2
2022/02/24 00:00:44;;;;;;;2.57;1.00;;;;;;;-1.85;83.00;98576.66;6225634;28;20601;-70
2022/02/24 00:03:47;;;;;;;4.63;1.53;;;;;;;-1.87;83.33;98576.69;6212802;28;20239;-71
2022/02/24 00:06:49;;;;;;;3.63;0.87;;;;;;;-1.89;82.93;98582.75;6224894;28;20277;-72
2022/02/24 00:09:51;;;;;;;3.27;1.30;;;;;;;-1.96;82.98;98574.25;6204370;28;20289;-71
2022/02/24 00:12:53;;;;;;;3.43;1.13;;;;;;;-2.01;83.50;98578.66;6208812;28;20613;-71
2022/02/24 00:15:55;;;;;;;2.97;1.10;;;;;;;-2.06;83.00;98577.88;6224629;28;20346;-70
2022/02/24 00:18:57;;;;;;;4.57;1.27;;;;;;;-2.13;82.75;98562.47;6226908;28;20238;-71
2022/02/24 00:22:00;;;;;;;1.37;0.90;;;;;;;-2.20;83.24;98563.47;6231043;28;20270;-71
2022/02/24 00:25:04;;;;;;;3.13;1.17;;;;;;;-2.24;83.40;98563.50;6230857;28;20247;-71
2022/02/24 00:28:06;;;;;;;3.30;0.93;;;;;;;-2.20;83.51;98560.88;6230216;28;20719;-71
2022/02/24 00:31:08;;;;;;;3.87;1.30;;;;;;;-2.22;83.31;98552.28;6229267;28;20236;-71
2022/02/24 00:34:11;;;;;;;2.27;1.17;;;;;;;-2.27;83.93;98549.75;6208959;28;20318;-71
2022/02/24 00:37:15;;;;;;;3.03;1.07;;;;;;;-2.33;83.67;98539.53;6207483;28;20720;-71
2022/02/24 00:40:18;;;;;;;3.23;1.30;;;;;;;-2.30;84.13;98534.31;6229822;28;20358;-71
2022/02/24 00:43:20;;;;;;;3.73;0.97;;;;;;;-2.31;84.14;98532.59;6229124;28;20960;-71
2022/02/24 00:46:22;;;;;;;1.33;0.83;;;;;;;-2.34;83.83;98537.81;6230254;28;20833;-70
2022/02/24 00:49:24;;;;;;;3.43;1.00;;;;;;;-2.41;84.26;98537.06;6228488;28;20239;-71
2022/02/24 00:52:26;;;;;;;2.40;1.20;;;;;;;-2.45;84.18;98535.38;6230289;28;20238;-71
2022/02/24 00:55:29;;;;;;;3.67;1.00;;;;;;;-2.49;83.71;98533.72;6230153;28;20305;-72
2022/02/24 00:58:31;;;;;;;2.47;0.90;;;;;;;-2.51;84.62;98532.91;6229796;28;20695;-71
2022/02/24 01:01:33;;;;;;;5.60;1.13;;;;;;;-2.53;83.79;98523.47;6228710;28;20263;-71
2022/02/24 01:04:36;;;;;;;5.07;1.20;;;;;;;-2.56;84.03;98523.50;6229415;28;20235;-71
2022/02/24 01:07:38;;;;;;;1.10;0.90;;;;;;;-2.54;84.77;98521.75;6221728;28;20631;-71
2022/02/24 01:10:41;;;;;;;1.87;0.90;;;;;;;-2.57;84.63;98509.72;6226435;28;20274;-71
2022/02/24 01:13:43;;;;;;;5.00;1.00;;;;;;;-2.61;84.34;98510.66;6212015;28;20601;-71
2022/02/24 01:16:45;;;;;;;3.73;1.10;;;;;;;-2.64;85.42;98506.38;6229424;28;20653;-72
2022/02/24 01:19:48;;;;;;;2.00;0.90;;;;;;;-2.63;84.69;98500.34;6227402;28;20660;-73
2022/02/24 01:22:50;;;;;;;2.53;1.10;;;;;;;-2.64;85.22;98500.38;6212174;28;20650;-71
2022/02/24 01:25:52;;;;;;;1.07;0.77;;;;;;;-2.73;85.22;98503.94;6223018;28;20767;-71
2022/02/24 01:28:57;;;;;;;6.17;0.90;;;;;;;-2.79;85.00;98498.84;6204215;28;20697;-71
2022/02/24 01:31:59;;;;;;;1.67;0.83;;;;;;;-2.82;84.66;98495.47;6204538;28;20319;-71
2022/02/24 01:35:01;;;;;;;2.13;0.80;;;;;;;-2.86;84.70;98484.31;6222919;28;20643;-71
2022/02/24 01:38:03;;;;;;;3.03;0.87;;;;;;;-2.89;85.20;98480.91;6216404;28;20314;-72
2022/02/24 01:41:06;;;;;;;1.37;0.70;;;;;;;-2.88;84.78;98477.44;6222398;28;20238;-71
2022/02/24 01:44:10;;;;;;;1.63;0.73;;;;;;;-2.92;84.79;98471.50;6231251;28;20255;-71
2022/02/24 01:47:13;;;;;;;2.63;0.90;;;;;;;-2.95;84.30;98465.50;6229222;28;20234;-71
2022/02/24 01:50:15;;;;;;;2.30;0.87;;;;;;;-3.02;84.65;98468.19;6209654;28;20322;-71
2022/02/24 01:53:18;;;;;;;3.43;0.93;;;;;;;-3.04;84.32;98464.78;6228495;28;20595;-71
2022/02/24 01:56:20;;;;;;;1.20;0.63;;;;;;;-3.07;84.04;98466.53;6227614;28;20826;-71
2022/02/24 01:59:22;;;;;;;2.27;0.73;;;;;;;-3.10;84.29;98467.44;6179332;28;20612;-70
2022/02/24 02:02:24;;;;;;;2.07;0.73;;;;;;;-3.11;84.34;98459.72;6220566;28;20840;-72
2022/02/24 02:05:29;;;;;;;1.47;0.57;;;;;;;-3.14;84.13;98465.78;6228366;28;20231;-72
2022/02/24 02:08:32;;;;;;;6.20;0.90;;;;;;;-3.14;83.98;98464.91;6212617;28;20637;-71
2022/02/24 02:11:34;;;;;;;2.90;1.10;;;;;;;-3.14;84.08;98460.59;6214626;28;20737;-71
2022/02/24 02:14:37;;;;;;;2.03;0.80;;;;;;;-3.18;84.14;98450.31;6228715;28;20723;-71
2022/02/24 02:17:39;;;;;;;1.53;0.70;;;;;;;-3.20;84.43;98446.94;6227696;28;20460;-71
2022/02/24 02:20:41;;;;;;;1.80;0.67;;;;;;;-3.23;84.00;98446.97;6225984;28;20237;-71
2022/02/24 02:23:43;;;;;;;3.40;0.97;;;;;;;-3.27;84.35;98434.97;6228186;28;20655;-71
2022/02/24 02:26:46;;;;;;;1.73;0.70;;;;;;;-3.27;83.73;98435.81;6226625;28;20232;-71
2022/02/24 02:29:48;;;;;;;0.70;0.60;;;;;;;-3.28;83.85;98425.50;6226293;28;20269;-72
2022/02/24 02:32:51;;;;;;;2.17;0.60;;;;;;;-3.26;83.52;98418.63;6196791;28;20270;-71
2022/02/24 02:35:53;;;;;;;3.83;1.00;;;;;;;-3.23;83.65;98403.94;6217162;28;20783;-71
2022/02/24 02:38:55;;;;;;;2.60;0.93;;;;;;;-3.20;83.42;98401.34;6220943;28;20775;-71
2022/02/24 02:41:57;;;;;;;1.83;0.50;;;;;;;-3.21;83.73;98397.03;6226077;28;20231;-72
2022/02/24 02:44:59;;;;;;;0.97;0.60;;;;;;;-3.18;83.81;98386.66;6227913;28;20319;-72
2022/02/24 02:48:02;;;;;;;2.33;0.80;;;;;;;-3.09;84.21;98381.34;6226564;28;20828;-71
2022/02/24 02:51:04;;;;;;;1.40;0.73;;;;;;;-3.03;84.17;98370.97;6226685;28;20765;-72
2022/02/24 02:54:07;;;;;;;0.93;0.67;;;;;;;-2.97;83.69;98370.00;6209964;28;20306;-71
2022/02/24 02:57:09;;;;;;;4.90;1.37;;;;;;;-2.93;84.18;98369.09;6225968;28;20207;-73
2022/02/24 03:00:13;;;;;;;3.93;1.70;;;;;;;-2.93;83.56;98371.66;6209925;28;20580;-71
2022/02/24 03:03:16;;;;;;;0.90;0.73;;;;;;;-2.94;83.95;98363.94;6227341;28;20273;-72
2022/02/24 03:06:18;;;;;;;1.57;0.70;;;;;;;-2.95;83.06;98357.06;6226015;28;20496;-71
2022/02/24 03:09:22;;;;;;;1.60;0.80;;;;;;;-2.94;83.15;98353.63;6211636;28;20327;-71
2022/02/24 03:12:24;;;;;;;4.23;0.83;;;;;;;-2.93;83.14;98352.75;6227131;28;20695;-70
2022/02/24 03:15:26;;;;;;;1.13;0.63;;;;;;;-2.91;83.21;98343.25;6226679;28;20227;-72
2022/02/24 03:18:29;;;;;;;0.87;0.73;;;;;;;-2.94;82.96;98346.72;6224819;28;20230;-71
2022/02/24 03:21:32;;;;;;;2.50;0.57;;;;;;;-2.94;82.97;98341.56;6227588;28;20220;-71
2022/02/24 03:24:35;;;;;;;1.40;0.83;;;;;;;-2.84;83.33;98332.78;6209403;28;20216;-72
2022/02/24 03:27:37;;;;;;;1.13;0.80;;;;;;;-2.84;83.23;98327.63;6227302;28;20695;-70
2022/02/24 03:30:40;;;;;;;1.47;0.63;;;;;;;-2.82;83.28;98323.28;6225431;28;20242;-70
2022/02/24 03:33:42;;;;;;;2.07;0.60;;;;;;;-2.84;82.75;98317.28;6215788;28;20669;-71
2022/02/24 03:36:44;;;;;;;2.20;0.70;;;;;;;-2.87;82.76;98311.31;6190630;28;20700;-72
2022/02/24 03:39:48;;;;;;;1.10;0.70;;;;;;;-2.89;83.11;98302.72;6195924;28;20731;-72
2022/02/24 03:42:50;;;;;;;1.57;0.97;;;;;;;-2.90;82.86;98308.81;6209599;28;20231;-72
2022/02/24 03:45:52;;;;;;;2.70;0.90;;;;;;;-2.91;83.04;98302.78;6224968;28;20235;-72
2022/02/24 03:48:54;;;;;;;3.37;0.97;;;;;;;-2.87;82.74;98306.16;6224801;28;20231;-71
2022/02/24 03:51:57;;;;;;;1.97;0.90;;;;;;;-2.83;83.35;98293.16;6208878;28;20228;-72
2022/02/24 03:54:59;;;;;;;2.63;1.03;;;;;;;-2.84;82.70;98286.31;6187458;28;20643;-72
2022/02/24 03:58:02;;;;;;;2.37;1.00;;;;;;;-2.85;82.41;98283.75;6205775;28;20737;-72
2022/02/24 04:01:04;;;;;;;3.20;0.70;;;;;;;-2.86;82.42;98287.19;6214567;28;20608;-72
2022/02/24 04:04:07;;;;;;;2.20;0.97;;;;;;;-2.88;82.74;98273.44;6230072;28;20224;-72
2022/02/24 04:07:10;;;;;;;1.27;1.10;;;;;;;-2.98;82.37;98265.88;6227437;28;20600;-71
2022/02/24 04:10:12;;;;;;;2.60;1.30;;;;;;;-2.98;82.77;98265.00;6230510;28;20727;-71
2022/02/24 04:13:15;;;;;;;3.70;0.90;;;;;;;-2.99;82.79;98255.56;6230255;28;20330;-71
2022/02/24 04:16:17;;;;;;;2.60;0.90;;;;;;;-3.01;82.61;98247.00;6229863;28;20242;-71
2022/02/24 04:19:19;;;;;;;1.63;0.97;;;;;;;-3.02;82.57;98245.31;6229018;28;20589;-71
2022/02/24 04:22:21;;;;;;;0.93;0.70;;;;;;;-3.03;82.91;98241.88;6230333;28;20611;-71
2022/02/24 04:25:23;;;;;;;2.90;0.83;;;;;;;-3.02;82.52;98240.16;6230795;28;20361;-71
2022/02/24 04:28:25;;;;;;;2.40;1.10;;;;;;;-3.00;82.82;98240.97;6228869;28;20670;-72
2022/02/24 04:31:28;;;;;;;2.57;0.90;;;;;;;-3.07;82.92;98242.78;6227905;28;20247;-72
2022/02/24 04:34:30;;;;;;;1.73;0.63;;;;;;;-3.08;82.79;98240.22;6221735;28;20224;-72
2022/02/24 04:37:33;;;;;;;3.17;1.00;;;;;;;-3.12;82.82;98242.03;6201722;28;20240;-72
2022/02/24 04:40:35;;;;;;;3.10;0.80;;;;;;;-3.16;82.50;98229.19;6225158;28;20235;-71
2022/02/24 04:43:38;;;;;;;5.73;1.30;;;;;;;-3.20;82.97;98219.81;6230187;28;20626;-72
2022/02/24 04:46:40;;;;;;;1.43;1.00;;;;;;;-3.25;82.82;98213.88;6228626;28;20742;-71
2022/02/24 04:49:42;;;;;;;2.87;1.00;;;;;;;-3.30;83.39;98218.28;6229510;28;20738;-72
2022/02/24 04:52:44;;;;;;;3.70;1.30;;;;;;;-3.35;82.73;98213.16;6231444;28;20613;-71
2022/02/24 04:55:46;;;;;;;1.20;0.70;;;;;;;-3.38;83.33;98215.78;6229946;28;20231;-71
2022/02/24 04:58:51;;;;;;;3.20;1.10;;;;;;;-3.41;82.97;98214.13;6227996;28;20242;-71
2022/02/24 05:01:53;;;;;;;4.83;1.17;;;;;;;-3.44;83.12;98213.31;6204205;28;20240;-71
2022/02/24 05:04:56;;;;;;;3.30;1.10;;;;;;;-3.47;82.97;98211.63;6229049;28;20239;-72
2022/02/24 05:07:59;;;;;;;4.03;1.00;;;;;;;-3.46;83.19;98212.50;6218135;28;20597;-72
2022/02/24 05:11:02;;;;;;;2.10;0.97;;;;;;;-3.44;83.10;98208.16;6204280;28;20240;-71
2022/02/24 05:14:04;;;;;;;1.87;0.80;;;;;;;-3.45;82.84;98206.47;6218496;28;20322;-68
2022/02/24 05:17:06;;;;;;;2.77;1.27;;;;;;;-3.43;83.80;98204.72;6229516;28;20716;-70
2022/02/24 05:20:10;;;;;;;1.60;0.90;;;;;;;-3.41;83.55;98200.38;6230255;28;20238;-70
2022/02/24 05:23:12;;;;;;;3.70;1.27;;;;;;;-3.37;83.80;98191.69;6229195;28;20229;-69
2022/02/24 05:26:14;;;;;;;1.73;0.90;;;;;;;-3.32;83.92;98197.66;6231209;28;20761;-67
2022/02/24 05:29:16;;;;;;;5.60;1.07;;;;;;;-3.18;84.09;98198.25;6229638;28;20266;-64
2022/02/24 05:32:18;;;;;;;3.27;1.30;;;;;;;-3.07;84.04;98182.56;6220470;28;20320;-64
2022/02/24 05:35:21;;;;;;;1.33;1.10;;;;;;;-2.99;83.60;98178.09;6211484;28;20254;-64
2022/02/24 05:38:23;;;;;;;1.77;1.00;;;;;;;-2.93;83.81;98170.28;6204797;28;20252;-65
2022/02/24 05:41:25;;;;;;;4.73;1.03;;;;;;;-3.00;83.90;98174.72;6213977;28;20251;-65
2022/02/24 05:44:27;;;;;;;2.50;1.13;;;;;;;-3.04;82.90;98167.03;6229187;28;20230;-65
2022/02/24 05:47:30;;;;;;;2.13;1.20;;;;;;;-3.08;82.84;98178.28;6228602;28;20220;-65
2022/02/24 05:50:32;;;;;;;1.10;0.97;;;;;;;-3.09;82.85;98180.00;6228445;28;20866;-64
2022/02/24 05:53:34;;;;;;;1.90;1.07;;;;;;;-3.05;83.00;98173.06;6229753;28;20366;-65
2022/02/24 05:56:37;;;;;;;2.03;1.20;;;;;;;-2.99;83.00;98157.44;6227936;28;20232;-66
2022/02/24 05:59:39;;;;;;;1.47;1.00;;;;;;;-2.98;83.22;98160.00;6229134;28;20696;-64
2022/02/24 06:02:41;;;;;;;1.43;0.87;;;;;;;-2.90;83.28;98159.88;6229056;28;20260;-64
2022/02/24 06:05:44;;;;;;;2.57;1.07;;;;;;;-2.86;83.26;98165.81;6226793;28;21111;-65
2022/02/24 06:08:46;;;;;;;4.60;1.10;;;;;;;-2.78;82.94;98158.78;6218752;28;20263;-65
2022/02/24 06:11:49;;;;;;;3.33;0.93;;;;;;;-2.77;83.19;98151.00;6226816;28;20311;-65
2022/02/24 06:14:51;;;;;;;1.67;0.80;;;;;;;-2.74;83.06;98168.19;6228485;28;20238;-67
2022/02/24 06:17:54;;;;;;;3.63;0.97;;;;;;;-2.69;83.18;98167.19;6226309;28;20238;-65
2022/02/24 06:20:57;;;;;;;1.97;1.20;;;;;;;-2.70;83.03;98165.53;6229569;28;20243;-65
2022/02/24 06:23:59;;;;;;;3.43;1.10;;;;;;;-2.63;83.12;98159.34;6227890;28;20746;-66
2022/02/24 06:27:01;;;;;;;1.57;1.17;;;;;;;-2.64;83.53;98157.63;6225949;28;20700;-64
2022/02/24 06:30:04;;;;;;;2.50;1.33;;;;;;;-2.62;83.33;98155.03;6226056;28;20246;-64
2022/02/24 06:33:06;;;;;;;1.20;0.90;;;;;;;-2.63;83.49;98155.91;6221810;28;20216;-66
2022/02/24 06:36:08;;;;;;;1.50;1.40;;;;;;;-2.65;82.90;98158.50;6217375;28;20242;-65
2022/02/24 06:39:10;;;;;;;2.23;1.13;;;;;;;-2.61;82.93;98165.34;6211673;28;20235;-65
2022/02/24 06:42:13;;;;;;;1.93;1.23;;;;;;;-2.55;83.24;98163.50;6227659;28;20439;-64
2022/02/24 06:45:16;;;;;;;1.17;0.87;;;;;;;-2.45;83.10;98159.84;6226445;28;20208;-65
2022/02/24 06:48:19;;;;;;;2.70;0.80;;;;;;;-2.44;83.04;98153.78;6228612;28;20216;-65
2022/02/24 06:51:21;;;;;;;1.30;0.90;;;;;;;-2.43;83.14;98150.31;6230298;28;20236;-65
2022/02/24 06:54:24;;;;;;;1.73;0.90;;;;;;;-2.46;82.50;98140.03;6225479;28;20759;-64
2022/02/24 06:57:26;;;;;;;1.53;1.10;;;;;;;-2.44;82.69;98138.28;6224952;28;20232;-65
2022/02/24 07:00:29;;;;;;;1.37;1.00;;;;;;;-2.39;82.98;98136.44;6226057;28;20242;-65
2022/02/24 07:03:31;;;;;;;2.43;1.00;;;;;;;-2.34;83.12;98135.47;6228283;28;20232;-64
2022/02/24 07:06:34;;;;;;;2.30;0.77;;;;;;;-2.27;83.19;98136.19;6208135;28;20565;-65
2022/02/24 07:09:39;;;;;;;3.37;1.17;;;;;;;-2.17;83.18;98139.41;6202856;28;20228;-67
2022/02/24 07:12:45;;;;;;;1.10;0.90;;;;;;;-2.08;82.93;98131.44;6227673;28;20224;-65
2022/02/24 07:15:47;;;;;;;3.80;1.07;;;;;;;-1.97;83.32;98127.72;6226448;28;20251;-66
2022/02/24 07:18:49;;;;;;;1.97;1.10;;;;;;;-1.88;83.14;98119.75;6226986;28;20711;-65
2022/02/24 07:21:51;;;;;;;3.33;1.10;;;;;;;-1.77;83.24;98124.66;6211127;28;20236;-66
2022/02/24 07:24:53;;;;;;;1.60;0.97;;;;;;;-1.66;83.15;98122.66;6212664;28;20413;-64
2022/02/24 07:27:55;;;;;;;3.13;1.10;;;;;;;-1.60;83.02;98119.09;6226317;28;20236;-66
2022/02/24 07:31:14;;;;;;;4.57;1.07;;;;;;;-1.51;82.75;98121.44;6229531;28;20247;-65
2022/02/24 07:34:16;;;;;;;3.10;1.10;;;;;;;-1.41;82.86;98124.66;6202586;28;20606;-65
2022/02/24 07:37:19;;;;;;;1.93;1.27;;;;;;;-1.31;83.39;98123.53;6203111;28;20240;-65
2022/02/24 07:40:21;;;;;;;4.93;2.10;;;;;;;-1.18;83.26;98122.28;6201448;28;20711;-65
2022/02/24 07:43:23;;;;;;;5.47;2.17;;;;;;;-1.07;83.14;98114.25;6224554;28;20235;-64
2022/02/24 07:46:26;;;;;;;2.97;1.30;;;;;;;-0.97;82.90;98107.91;6226258;28;20711;-65
2022/02/24 07:49:28;;;;;;;2.20;1.30;;;;;;;-0.85;82.59;98108.44;6225995;28;20232;-64
2022/02/24 07:52:30;;;;;;;3.50;1.40;;;;;;;-0.75;82.71;98102.09;6225000;28;20231;-66
2022/02/24 07:55:32;;;;;;;2.93;1.70;;;;;;;-0.56;82.92;98107.59;6224246;28;20230;-66
2022/02/24 07:58:35;;;;;;;3.10;1.80;;;;;;;-0.41;82.63;98107.16;6225832;28;20227;-64
2022/02/24 08:01:37;;;;;;;6.37;2.30;;;;;;;-0.21;82.44;98106.56;6225460;28;20326;-65
2022/02/24 08:04:39;;;;;;;3.30;1.80;;;;;;;-0.08;82.02;98104.41;6226668;28;20648;-64
2022/02/24 08:07:41;;;;;;;3.60;2.03;;;;;;;0.05;82.37;98097.13;6218029;28;20256;-66
2022/02/24 08:10:43;;;;;;;2.60;1.90;;;;;;;0.19;81.68;98105.31;6221121;28;20250;-67
2022/02/24 08:13:45;;;;;;;3.83;1.97;;;;;;;0.33;81.68;98100.50;6226068;28;20743;-65
2022/02/24 08:16:47;;;;;;;4.10;2.10;;;;;;;0.48;82.05;98091.38;6225793;28;20231;-65
2022/02/24 08:19:49;;;;;;;3.60;1.80;;;;;;;0.79;81.85;98088.59;6224769;28;20239;-65
2022/02/24 08:22:53;;;;;;;4.00;2.23;;;;;;;1.17;81.16;98071.63;6225235;28;20223;-65
2022/02/24 08:25:57;;;;;;;6.17;2.77;;;;;;;1.57;80.46;98076.19;6225895;28;20227;-66
2022/02/24 08:28:59;;;;;;;5.53;2.60;;;;;;;2.01;78.70;98070.09;6225524;28;20239;-66
2022/02/24 08:32:02;;;;;;;3.70;2.67;;;;;;;2.47;77.91;98065.63;6217680;28;20257;-66
2022/02/24 08:35:06;;;;;;;5.33;2.60;;;;;;;2.93;75.99;98065.34;6213841;28;20251;-66
2022/02/24 08:38:08;;;;;;;4.27;2.80;;;;;;;3.48;72.92;98049.88;6206399;28;20310;-66
2022/02/24 08:41:10;;;;;;;5.33;2.70;;;;;;;3.94;71.30;98051.16;6219087;28;20235;-66
2022/02/24 08:44:13;;;;;;;5.07;2.60;;;;;;;4.51;68.95;98048.38;6230194;28;20236;-66
2022/02/24 08:47:18;;;;;;;3.70;2.30;;;;;;;5.09;66.38;98041.03;6230082;28;20597;-65
2022/02/24 08:50:20;;;;;;;5.90;2.87;;;;;;;5.39;64.52;98038.56;6229860;28;20717;-66
2022/02/24 08:53:42;;;;;;;6.07;3.00;;;;;;;5.89;62.52;98034.00;6230737;28;20241;-67
2022/02/24 08:56:45;;;;;;;4.07;2.63;;;;;;;6.37;60.50;98026.94;6228623;28;20240;-66
2022/02/24 08:59:48;;;;;;;6.13;2.70;;;;;;;6.84;58.63;98024.13;6229756;28;20242;-66
2022/02/24 09:02:50;;;;;;;4.90;2.27;;;;;;;7.27;59.06;98024.16;6230207;28;20234;-66
2022/02/24 09:05:52;;;;;;;6.03;2.63;;;;;;;7.64;56.75;98007.81;6211602;28;20239;-66
2022/02/24 09:08:55;;;;;;;3.13;2.40;;;;;;;7.99;55.31;98008.16;6228036;28;20970;-66
2022/02/24 09:11:57;;;;;;;2.37;2.13;;;;;;;8.39;55.55;98005.56;6230277;28;20317;-66
2022/02/24 09:14:59;;;;;;;3.73;2.60;;;;;;;8.66;54.98;98001.13;6229215;28;20743;-67
2022/02/24 09:18:06;;;;;;;6.60;2.73;;;;;;;8.73;53.09;97999.75;6220236;28;20370;-65
2022/02/24 09:21:11;;;;;;;2.53;2.00;;;;;;;8.99;52.41;98003.22;6208860;28;20214;-66
2022/02/24 09:24:18;;;;;;;3.40;2.13;;;;;;;9.24;50.54;97994.50;6229335;28;20206;-66
2022/02/24 09:27:20;;;;;;;5.27;2.70;;;;;;;9.33;50.80;97999.13;6228642;28;20211;-65
2022/02/24 09:30:22;;;;;;;6.70;2.87;;;;;;;9.33;49.78;97993.84;6229090;28;20233;-66
2022/02/24 09:33:29;;;;;;;4.97;2.30;;;;;;;9.60;50.07;97989.25;6210592;28;20263;-66
2022/02/24 09:36:32;;;;;;;2.87;2.20;;;;;;;9.91;48.47;97976.50;6221076;28;20237;-66
2022/02/24 09:39:34;;;;;;;3.07;2.23;;;;;;;10.27;47.95;97979.13;6218844;28;20224;-67
2022/02/24 09:42:36;;;;;;;7.53;2.90;;;;;;;10.57;47.30;97975.13;6219026;28;20741;-66
2022/02/24 09:45:41;;;;;;;5.83;2.90;;;;;;;10.55;46.51;97975.25;6209398;28;20887;-65
2022/02/24 09:48:45;;;;;;;5.13;2.53;;;;;;;10.66;46.56;97971.81;6228756;28;20519;-66
2022/02/24 09:51:47;;;;;;;3.83;2.67;;;;;;;10.83;45.40;97978.44;6227086;28;20238;-66
2022/02/24 09:54:49;;;;;;;4.27;2.47;;;;;;;10.84;44.90;97983.59;6228703;28;20241;-66
2022/02/24 09:57:52;;;;;;;4.20;2.60;;;;;;;11.09;44.06;97975.44;6227047;28;20250;-66
2022/02/24 10:00:59;;;;;;;14.73;3.50;;;;;;;11.48;44.42;97976.75;6228417;28;20389;-65
2022/02/24 10:04:03;;;;;;;5.20;2.67;;;;;;;11.94;45.26;97973.13;6226771;28;20742;-66
2022/02/24 10:07:23;;;;;;;3.87;2.47;;;;;;;12.20;40.65;97955.94;6226317;28;20236;-66
2022/02/24 10:10:31;;;;;;;3.67;2.63;;;;;;;12.23;40.42;97954.03;6215620;28;21018;-66
2022/02/24 10:13:33;;;;;;;7.50;2.60;;;;;;;12.30;40.07;97956.03;6227609;28;20229;-66
2022/02/24 10:16:56;;;;;;;9.93;3.27;;;;;;;12.41;40.34;97945.41;6227865;28;20237;-66
2022/02/24 10:19:58;;;;;;;3.17;2.30;;;;;;;12.31;41.72;97943.63;6227637;28;20259;-66
2022/02/24 10:23:00;;;;;;;3.40;2.60;;;;;;;12.64;40.99;97943.47;6228654;28;20231;-66
2022/02/24 10:26:09;;;;;;;22.97;3.80;;;;;;;12.72;40.77;97929.56;6227153;28;20244;-66
2022/02/24 10:29:11;;;;;;;3.83;2.80;;;;;;;12.97;40.16;97923.88;6226259;28;20717;-66
2022/02/24 10:32:32;;;;;;;2.77;2.13;;;;;;;13.38;40.08;97922.09;6219813;28;20325;-66
2022/02/24 10:35:41;;;;;;;4.53;2.30;;;;;;;13.49;39.33;97917.53;6211200;28;20235;-66
2022/02/24 10:39:13;;;;;;;4.37;2.67;;;;;;;13.39;38.98;97906.06;6203004;28;20310;-67
2022/02/24 10:42:23;;;;;;;3.67;2.60;;;;;;;13.47;39.21;97900.09;6222415;28;20242;-65
2022/02/24 10:45:25;;;;;;;5.37;2.57;;;;;;;13.75;38.12;97895.81;6227454;28;20237;-67
2022/02/24 10:48:30;;;;;;;4.73;2.40;;;;;;;13.97;37.48;97885.75;6227290;28;20230;-65
2022/02/24 10:51:35;;;;;;;2.47;2.10;;;;;;;14.33;36.97;97878.91;6226259;28;20243;-65
2022/02/24 10:54:38;;;;;;;6.43;2.63;;;;;;;14.17;36.25;97880.47;6229631;28;20250;-66
2022/02/24 10:57:40;;;;;;;4.53;2.87;;;;;;;14.27;35.71;97874.19;6227186;28;20312;-67
2022/02/24 11:00:42;;;;;;;5.87;2.33;;;;;;;14.29;36.26;97874.03;6226932;28;20308;-65
2022/02/24 11:03:52;;;;;;;3.57;2.53;;;;;;;14.46;36.75;97862.72;6227112;28;20334;-65
2022/02/24 11:06:57;;;;;;;4.40;3.13;;;;;;;14.53;35.62;97857.69;6225873;28;20258;-66
2022/02/24 11:09:59;;;;;;;4.67;2.67;;;;;;;14.36;36.24;97846.78;6220394;28;20232;-67
2022/02/24 11:13:01;;;;;;;6.13;2.90;;;;;;;14.40;37.02;97837.56;6227232;28;20263;-66
2022/02/24 11:16:04;;;;;;;5.43;3.03;;;;;;;14.51;36.36;97839.22;6226441;28;20231;-66
2022/02/24 11:19:07;;;;;;;4.80;2.77;;;;;;;14.45;36.30;97844.28;6226745;28;20652;-66
2022/02/24 11:22:09;;;;;;;3.90;2.70;;;;;;;14.32;36.32;97821.50;6213755;28;20231;-66
2022/02/24 11:25:14;;;;;;;5.00;3.23;;;;;;;14.02;37.74;97817.22;6230638;28;20219;-66
2022/02/24 11:28:19;;;;;;;5.13;3.00;;;;;;;14.32;37.46;97802.91;6226803;28;20329;-67
2022/02/24 11:31:30;;;;;;;4.20;2.63;;;;;;;14.72;35.91;97799.16;6225769;28;20236;-66
2022/02/24 11:34:54;;;;;;;6.33;3.77;;;;;;;14.52;36.79;97800.22;6219231;28;20258;-66
2022/02/24 11:38:13;;;;;;;5.73;2.63;;;;;;;14.59;36.45;97788.88;6214057;28;20295;-66
2022/02/24 11:41:16;;;;;;;4.10;2.70;;;;;;;15.08;36.04;97778.84;6223698;28;20230;-67
2022/02/24 11:44:36;;;;;;;3.83;2.93;;;;;;;15.06;35.38;97772.88;6225226;28;20230;-66
2022/02/24 11:48:18;;;;;;;4.73;3.13;;;;;;;15.11;35.40;97766.09;6226297;28;20227;-66
2022/02/24 11:51:21;;;;;;;6.43;3.07;;;;;;;14.80;35.25;97761.25;6224924;28;20507;-66
2022/02/24 11:54:37;;;;;;;4.63;2.77;;;;;;;15.11;35.26;97766.09;6225988;28;20278;-67
2022/02/24 11:57:39;;;;;;;4.43;2.40;;;;;;;15.31;34.55;97752.69;6226409;28;20275;-66
2022/02/24 12:01:09;;;;;;;2.87;2.43;;;;;;;15.55;33.78;97744.97;6226135;28;20229;-66
2022/02/24 12:04:27;;;;;;;5.23;2.43;;;;;;;15.83;34.95;97751.03;6223314;28;20285;-66
2022/02/24 12:07:29;;;;;;;3.60;2.33;;;;;;;15.94;33.78;97742.81;6218610;28;20236;-67
2022/02/24 12:10:45;;;;;;;4.43;2.50;;;;;;;15.95;33.97;97740.97;6202044;28;20590;-65
2022/02/24 12:13:46;;;;;;;3.37;2.40;;;;;;;16.45;34.02;97733.97;6207093;28;20703;-65
2022/02/24 12:17:04;;;;;;;4.80;2.60;;;;;;;17.06;33.00;97732.09;6229700;28;20424;-66
2022/02/24 12:20:19;;;;;;;3.63;2.80;;;;;;;17.20;33.00;97728.78;6231172;28;20759;-66
2022/02/24 12:23:27;;;;;;;2.87;2.20;;;;;;;16.80;31.44;97719.66;6232026;28;20716;-66
2022/02/24 12:26:38;;;;;;;5.80;2.73;;;;;;;16.62;31.80;97726.94;6229613;28;20230;-66
2022/02/24 12:29:43;;;;;;;17.07;3.47;;;;;;;16.67;31.29;97724.59;6230664;28;20228;-66
2022/02/24 12:32:47;;;;;;;3.10;1.97;;;;;;;16.21;30.88;97729.34;6216025;28;20286;-65
2022/02/24 12:35:50;;;;;;;2.80;2.30;;;;;;;16.38;31.37;97721.44;6210054;28;20709;-65
2022/02/24 12:38:53;;;;;;;4.23;2.33;;;;;;;16.78;31.36;97712.81;6220859;28;20302;-66
2022/02/24 12:41:55;;;;;;;8.37;2.00;;;;;;;17.14;29.93;97705.44;6230017;28;20277;-66
2022/02/24 12:44:58;;;;;;;29.37;3.70;;;;;;;16.89;30.05;97705.38;6227001;28;20228;-66
2022/02/24 12:48:02;;;;;;;4.33;2.63;;;;;;;16.63;30.88;97704.63;6230260;28;20249;-67
2022/02/24 12:51:05;;;;;;;3.40;2.20;;;;;;;16.90;30.70;97695.53;6229516;28;20373;-66
2022/02/24 12:54:15;;;;;;;2.63;2.13;;;;;;;17.23;30.47;97696.44;6228390;28;20212;-66
2022/02/24 12:57:24;;;;;;;3.73;2.00;;;;;;;17.23;30.47;97686.63;6231304;28;20227;-66
2022/02/24 13:00:32;;;;;;;4.10;1.97;;;;;;;17.74;30.12;97681.16;6228486;28;20235;-66
2022/02/24 13:03:35;;;;;;;3.27;2.10;;;;;;;17.96;29.71;97678.66;6230275;28;20694;-66
2022/02/24 13:06:39;;;;;;;30.63;5.37;;;;;;;17.84;30.02;97671.16;6229579;28;20235;-66
2022/02/24 13:09:42;;;;;;;3.47;2.13;;;;;;;18.10;28.91;97662.91;6217596;28;20657;-66
2022/02/24 13:12:46;;;;;;;3.23;2.30;;;;;;;18.10;29.75;97649.56;6230244;28;20707;-67
2022/02/24 13:15:48;;;;;;;4.53;2.50;;;;;;;17.97;30.37;97666.09;6227617;28;20321;-66
2022/02/24 13:18:51;;;;;;;3.80;2.33;;;;;;;17.38;30.41;97656.59;6229626;28;20647;-66
2022/02/24 13:21:57;;;;;;;8.60;2.73;;;;;;;17.76;31.40;97644.47;6228308;28;20715;-66
2022/02/24 13:24:59;;;;;;;13.60;3.50;;;;;;;18.39;29.79;97631.09;6180221;28;20299;-66
2022/02/24 13:28:02;;;;;;;4.73;2.50;;;;;;;19.75;27.19;97622.38;6222046;28;20285;-66
2022/02/24 13:31:08;;;;;;;3.27;2.50;;;;;;;20.46;26.35;97628.16;6228329;28;20232;-67
2022/02/24 13:34:12;;;;;;;2.90;2.30;;;;;;;21.50;25.09;97627.66;6218490;28;20263;-67
2022/02/24 13:37:14;;;;;;;6.30;3.00;;;;;;;22.18;24.12;97611.84;6211930;28;20232;-66
2022/02/24 13:40:16;;;;;;;4.63;2.60;;;;;;;22.77;23.26;97602.22;6212778;28;20365;-66
2022/02/24 13:43:18;;;;;;;4.03;2.70;;;;;;;22.66;22.89;97612.75;6228612;28;20704;-66
2022/02/24 13:46:20;;;;;;;7.60;2.90;;;;;;;21.67;24.26;97612.09;6228008;28;20243;-66
2022/02/24 13:49:33;;;;;;;6.30;3.30;;;;;;;20.72;25.42;97600.81;6228810;28;20305;-66
2022/02/24 13:52:37;;;;;;;6.03;2.93;;;;;;;21.62;24.79;97596.56;6228828;28;20317;-66
2022/02/24 13:55:50;;;;;;;9.07;2.73;;;;;;;22.45;23.53;97601.06;6229177;28;20583;-66
2022/02/24 13:58:58;;;;;;;5.27;2.70;;;;;;;22.01;23.61;97588.00;6227389;28;20397;-66
2022/02/24 14:02:00;;;;;;;7.43;3.30;;;;;;;21.26;24.49;97591.28;6228186;28;20315;-66
2022/02/24 14:05:14;;;;;;;3.20;2.73;;;;;;;21.91;24.18;97587.47;6228708;28;20716;-68
2022/02/24 14:08:16;;;;;;;4.10;3.03;;;;;;;20.26;26.23;97587.66;6227093;28;20232;-66
2022/02/24 14:11:31;;;;;;;3.87;2.97;;;;;;;19.11;27.98;97578.22;6227876;28;20704;-65
2022/02/24 14:14:37;;;;;;;4.97;2.80;;;;;;;18.55;28.62;97572.22;6226436;28;20333;-66
2022/02/24 14:17:39;;;;;;;5.53;3.20;;;;;;;17.96;29.21;97577.19;6229947;28;20243;-66
2022/02/24 14:20:41;;;;;;;4.63;3.20;;;;;;;16.73;31.33;97573.88;6228034;28;20239;-65
2022/02/24 14:23:44;;;;;;;6.40;3.13;;;;;;;15.16;33.44;97566.28;6227557;28;20727;-66
2022/02/24 14:26:46;;;;;;;4.17;3.03;;;;;;;14.56;35.13;97563.44;6227021;28;20596;-65